Time;durP1;ratioP1;P1;durP2;ratioP2;P2;SDS_P1;SDS_P2;PMS_P1;PMS_P2;Temp;Humidity;BMP_temperature;BMP_pressure;BME280_temperature;BME280_humidity;BME280_pressure;Samples;Min_cycle;Max_cycle;Signal;HPM_P1;HPM_P2
2023/07/20 00:02:23;;;;;;;56.23;7.40;;;;;;;;;;5004256;28;20057;-60
2023/07/20 00:04:49;;;;;;;72.35;8.95;;;;;;;;;;5026949;28;20091;-60
2023/07/20 00:07:16;;;;;;;43.17;6.25;;;;;;;;;;5026280;28;20045;-60
2023/07/20 00:09:43;;;;;;;27.25;5.28;;;;;;;;;;5029801;28;20053;-61
2023/07/20 00:12:09;;;;;;;30.85;5.63;;;;;;;;;;5019006;28;20050;-63
2023/07/20 00:14:36;;;;;;;30.95;5.82;;;;;;;;;;5025776;28;20066;-60
2023/07/20 00:17:03;;;;;;;68.75;9.50;;;;;;;;;;5011607;28;20487;-59
2023/07/20 00:19:31;;;;;;;35.50;7.85;;;;;;;;;;5025019;28;20045;-60
2023/07/20 00:21:59;;;;;;;29.90;7.40;;;;;;;;;;5026007;28;20040;-60
2023/07/20 00:24:25;;;;;;;40.60;6.95;;;;;;;;;;5021624;28;20192;-60
2023/07/20 00:26:52;;;;;;;48.78;9.32;;;;;;;;;;5025041;28;20041;-61
2023/07/20 00:29:19;;;;;;;28.42;11.23;;;;;;;;;;5013240;28;20175;-60
2023/07/20 00:31:46;;;;;;;40.30;10.07;;;;;;;;;;5026042;28;20434;-62
2023/07/20 00:34:13;;;;;;;38.92;13.23;;;;;;;;;;5027525;28;20053;-62
2023/07/20 00:36:41;;;;;;;32.67;6.95;;;;;;;;;;5010730;28;20049;-63
2023/07/20 00:39:07;;;;;;;30.30;6.05;;;;;;;;;;5026537;28;20081;-60
2023/07/20 00:41:34;;;;;;;50.22;7.30;;;;;;;;;;5031942;28;20128;-61
2023/07/20 00:44:01;;;;;;;84.25;17.20;;;;;;;;;;5012472;28;20073;-60
2023/07/20 00:46:28;;;;;;;41.85;19.83;;;;;;;;;;5029227;28;20045;-60
2023/07/20 00:48:56;;;;;;;156.80;142.68;;;;;;;;;;5026064;28;20088;-62
2023/07/20 00:51:23;;;;;;;49.65;8.60;;;;;;;;;;5008437;28;20045;-61
2023/07/20 00:53:50;;;;;;;30.40;5.55;;;;;;;;;;5029173;28;20041;-61
2023/07/20 00:56:16;;;;;;;46.63;5.70;;;;;;;;;;5024894;28;20054;-61
2023/07/20 00:58:43;;;;;;;26.88;4.60;;;;;;;;;;5027916;28;20557;-61
2023/07/20 01:01:10;;;;;;;13.65;3.85;;;;;;;;;;5025663;28;20075;-62
2023/07/20 01:03:37;;;;;;;28.33;4.97;;;;;;;;;;5027580;28;20447;-60
2023/07/20 01:06:04;;;;;;;30.65;5.68;;;;;;;;;;5023565;28;20489;-60
2023/07/20 01:08:43;;;;;;;38.90;7.57;;;;;;;;;;5029470;28;20053;-60
2023/07/20 01:11:16;;;;;;;39.38;7.18;;;;;;;;;;5022791;28;20372;-61
2023/07/20 01:13:43;;;;;;;35.30;6.57;;;;;;;;;;5022223;28;20045;-62
2023/07/20 01:16:10;;;;;;;27.13;6.53;;;;;;;;;;5010466;28;20494;-61
2023/07/20 01:18:37;;;;;;;31.25;6.35;;;;;;;;;;5010270;28;20099;-62
2023/07/20 01:21:07;;;;;;;42.72;7.32;;;;;;;;;;4994402;28;20050;-60
2023/07/20 01:23:53;;;;;;;54.60;18.02;;;;;;;;;;5009262;28;20041;-60
2023/07/20 01:26:38;;;;;;;145.55;132.30;;;;;;;;;;5031328;28;20053;-61
2023/07/20 01:29:05;;;;;;;;;;;;;;;;;;5029820;28;20063;-63
2023/07/20 01:31:33;;;;;;;30.92;13.48;;;;;;;;;;5012468;28;19928;-61
2023/07/20 01:34:00;;;;;;;31.25;6.10;;;;;;;;;;5029429;28;20617;-59
2023/07/20 01:36:29;;;;;;;37.58;5.53;;;;;;;;;;5011917;28;20037;-61
2023/07/20 01:38:56;;;;;;;42.63;6.05;;;;;;;;;;5010082;28;20046;-59
2023/07/20 01:41:23;;;;;;;20.63;4.22;;;;;;;;;;5026476;28;20049;-60
2023/07/20 01:43:49;;;;;;;42.63;6.03;;;;;;;;;;5030381;28;20115;-62
2023/07/20 01:46:16;;;;;;;31.90;4.60;;;;;;;;;;5027129;28;20208;-60
2023/07/20 01:48:43;;;;;;;29.30;4.78;;;;;;;;;;5012547;28;20124;-62
2023/07/20 01:51:09;;;;;;;38.65;5.57;;;;;;;;;;5030936;28;20137;-61
2023/07/20 01:53:36;;;;;;;20.08;4.07;;;;;;;;;;5006268;28;20041;-59
2023/07/20 01:56:03;;;;;;;89.88;9.40;;;;;;;;;;5014160;28;20072;-60
2023/07/20 01:58:29;;;;;;;29.55;4.78;;;;;;;;;;4998337;28;20056;-60
2023/07/20 02:04:01;;;;;;;21.17;4.90;;;;;;;;;;1407173;26;20050;-66
2023/07/20 02:06:27;;;;;;;40.28;5.75;;;;;;;;;;4992431;28;20034;-65
2023/07/20 02:08:54;;;;;;;36.13;6.07;;;;;;;;;;4992847;28;20058;-65
2023/07/20 02:11:21;;;;;;;21.40;3.78;;;;;;;;;;4992960;28;20101;-66
2023/07/20 02:13:48;;;;;;;31.30;4.50;;;;;;;;;;4993132;28;20074;-68
2023/07/20 02:16:15;;;;;;;27.85;4.70;;;;;;;;;;4992763;28;20463;-66
2023/07/20 02:18:41;;;;;;;36.65;4.88;;;;;;;;;;4990791;28;20096;-64
2023/07/20 02:21:08;;;;;;;56.63;6.78;;;;;;;;;;4986647;28;20055;-64
2023/07/20 02:23:34;;;;;;;42.85;5.65;;;;;;;;;;4992103;28;20049;-66
2023/07/20 02:26:01;;;;;;;51.53;6.35;;;;;;;;;;4990554;28;20537;-69
2023/07/20 02:28:28;;;;;;;43.83;5.80;;;;;;;;;;4992733;28;20046;-66
2023/07/20 02:30:55;;;;;;;48.15;6.80;;;;;;;;;;4989604;28;20049;-65
2023/07/20 02:33:22;;;;;;;19.55;4.72;;;;;;;;;;4990552;28;20045;-66
2023/07/20 02:35:49;;;;;;;23.80;5.40;;;;;;;;;;4992498;28;20078;-65
2023/07/20 02:38:17;;;;;;;30.00;5.13;;;;;;;;;;4989997;28;20042;-65
2023/07/20 02:40:44;;;;;;;27.10;5.15;;;;;;;;;;4991972;28;20572;-65
2023/07/20 02:43:10;;;;;;;33.78;5.60;;;;;;;;;;4990600;28;20058;-65
2023/07/20 02:45:41;;;;;;;43.72;6.72;;;;;;;;;;4990302;28;20120;-67
2023/07/20 02:48:08;;;;;;;34.17;5.95;;;;;;;;;;4991171;28;20053;-65
2023/07/20 02:50:35;;;;;;;36.30;6.85;;;;;;;;;;4991265;28;20062;-66
2023/07/20 02:53:02;;;;;;;83.70;9.50;;;;;;;;;;4990592;28;20050;-65
2023/07/20 02:55:28;;;;;;;32.45;5.30;;;;;;;;;;4995416;28;20059;-68
2023/07/20 02:57:55;;;;;;;29.25;5.47;;;;;;;;;;4989558;28;20046;-68
2023/07/20 03:00:23;;;;;;;31.10;5.82;;;;;;;;;;4991363;28;20465;-64
2023/07/20 03:02:52;;;;;;;25.25;5.57;;;;;;;;;;4992077;28;20093;-65
2023/07/20 03:05:19;;;;;;;34.10;6.03;;;;;;;;;;5005570;28;20126;-66
2023/07/20 03:07:46;;;;;;;27.10;5.10;;;;;;;;;;4991132;28;20525;-67
2023/07/20 03:10:12;;;;;;;29.52;6.13;;;;;;;;;;4989823;28;20077;-65
2023/07/20 03:12:39;;;;;;;29.65;6.03;;;;;;;;;;4987921;28;20476;-66
2023/07/20 03:15:06;;;;;;;50.88;7.95;;;;;;;;;;4989777;28;20388;-66
2023/07/20 03:17:33;;;;;;;46.97;7.63;;;;;;;;;;4991246;28;20053;-65
2023/07/20 03:20:00;;;;;;;79.28;9.80;;;;;;;;;;4990481;28;20042;-68
2023/07/20 03:22:28;;;;;;;34.97;6.55;;;;;;;;;;4989173;28;20042;-65
2023/07/20 03:24:55;;;;;;;36.03;6.05;;;;;;;;;;4989632;28;20560;-66
2023/07/20 03:27:21;;;;;;;38.10;6.50;;;;;;;;;;4991150;28;20046;-66
2023/07/20 03:29:49;;;;;;;26.77;6.05;;;;;;;;;;4989938;28;20058;-69
2023/07/20 03:32:15;;;;;;;48.60;7.65;;;;;;;;;;4989981;28;20511;-66
2023/07/20 03:34:44;;;;;;;24.85;5.88;;;;;;;;;;4992286;28;20433;-65
2023/07/20 03:37:12;;;;;;;26.60;6.68;;;;;;;;;;4990858;28;20133;-64
2023/07/20 03:39:39;;;;;;;42.55;6.68;;;;;;;;;;4973665;28;20104;-65
2023/07/20 03:42:06;;;;;;;25.77;6.13;;;;;;;;;;4989444;28;20049;-66
2023/07/20 03:44:33;;;;;;;28.65;5.35;;;;;;;;;;4990617;28;20053;-64
2023/07/20 03:47:00;;;;;;;95.18;10.73;;;;;;;;;;4992657;28;20065;-65
2023/07/20 03:49:27;;;;;;;26.77;5.93;;;;;;;;;;4992221;28;20043;-66
2023/07/20 03:51:54;;;;;;;31.77;6.13;;;;;;;;;;4989346;28;20548;-64
2023/07/20 03:54:20;;;;;;;26.88;6.18;;;;;;;;;;4990685;28;20062;-65
2023/07/20 03:56:47;;;;;;;30.63;5.88;;;;;;;;;;4988891;28;20054;-64
2023/07/20 03:59:14;;;;;;;75.35;10.68;;;;;;;;;;4990497;28;20421;-64
2023/07/20 04:01:40;;;;;;;24.48;6.75;;;;;;;;;;4992120;28;20100;-65
2023/07/20 04:04:07;;;;;;;23.33;6.05;;;;;;;;;;4990401;28;20065;-65
2023/07/20 04:06:35;;;;;;;27.20;7.07;;;;;;;;;;4991537;28;20045;-65
2023/07/20 04:09:02;;;;;;;49.72;8.68;;;;;;;;;;4990844;28;20034;-65
2023/07/20 04:11:29;;;;;;;33.13;6.97;;;;;;;;;;4992060;28;20050;-64
2023/07/20 04:13:56;;;;;;;75.85;10.50;;;;;;;;;;4993601;28;20146;-65
2023/07/20 04:16:22;;;;;;;36.30;7.63;;;;;;;;;;5010216;28;20097;-68
2023/07/20 04:18:49;;;;;;;32.83;7.88;;;;;;;;;;4994574;28;20054;-66
2023/07/20 04:21:16;;;;;;;25.60;7.00;;;;;;;;;;4993218;28;20444;-65
2023/07/20 04:23:43;;;;;;;29.60;6.85;;;;;;;;;;4990743;28;20074;-65
2023/07/20 04:26:12;;;;;;;56.90;9.23;;;;;;;;;;4994616;28;20054;-64
2023/07/20 04:28:42;;;;;;;23.13;6.57;;;;;;;;;;4994971;28;20056;-65
2023/07/20 04:31:12;;;;;;;50.80;8.77;;;;;;;;;;4993150;28;20077;-65
2023/07/20 04:33:39;;;;;;;38.65;8.75;;;;;;;;;;4990693;28;20046;-65
2023/07/20 04:36:06;;;;;;;43.00;8.65;;;;;;;;;;4993019;28;20140;-65
2023/07/20 04:38:34;;;;;;;40.22;8.15;;;;;;;;;;4991151;28;20042;-65
2023/07/20 04:41:08;;;;;;;87.32;11.95;;;;;;;;;;4993309;28;20051;-65
2023/07/20 04:43:43;;;;;;;36.00;7.75;;;;;;;;;;4994184;28;20579;-66
2023/07/20 04:46:10;;;;;;;30.52;7.60;;;;;;;;;;4975700;28;20488;-65
2023/07/20 04:48:37;;;;;;;34.40;8.50;;;;;;;;;;4992692;28;20392;-65
2023/07/20 04:51:04;;;;;;;48.47;9.10;;;;;;;;;;4994092;28;20113;-66
2023/07/20 04:53:31;;;;;;;43.05;8.75;;;;;;;;;;4992829;28;20070;-67
2023/07/20 04:55:57;;;;;;;83.70;12.40;;;;;;;;;;4992786;28;20056;-68
2023/07/20 04:58:24;;;;;;;23.17;8.57;;;;;;;;;;4993321;28;20689;-64
2023/07/20 05:00:53;;;;;;;29.80;8.52;;;;;;;;;;4991932;28;20381;-64
2023/07/20 05:03:20;;;;;;;43.25;9.75;;;;;;;;;;4992302;28;20045;-65
2023/07/20 05:05:50;;;;;;;40.92;9.13;;;;;;;;;;4992303;28;20058;-67
2023/07/20 05:08:17;;;;;;;23.58;7.00;;;;;;;;;;4991612;28;20050;-65
2023/07/20 05:10:44;;;;;;;33.22;8.30;;;;;;;;;;4993558;28;20141;-71
2023/07/20 05:13:10;;;;;;;27.55;7.60;;;;;;;;;;4991282;28;20046;-67
2023/07/20 05:15:37;;;;;;;23.88;7.00;;;;;;;;;;4991169;28;20540;-66
2023/07/20 05:18:05;;;;;;;37.05;7.75;;;;;;;;;;4991352;28;20447;-71
2023/07/20 05:20:33;;;;;;;33.15;8.63;;;;;;;;;;4992401;28;20431;-69
2023/07/20 05:23:00;;;;;;;75.65;13.32;;;;;;;;;;4991983;28;20599;-67
2023/07/20 05:25:27;;;;;;;62.30;10.07;;;;;;;;;;4992315;28;20043;-67
2023/07/20 05:27:57;;;;;;;32.28;7.30;;;;;;;;;;4990818;28;20500;-66
2023/07/20 05:30:23;;;;;;;34.72;7.57;;;;;;;;;;4993508;28;20096;-67
2023/07/20 05:32:52;;;;;;;20.40;6.93;;;;;;;;;;4993420;28;20042;-66
2023/07/20 05:35:19;;;;;;;31.98;10.80;;;;;;;;;;4992891;28;20057;-70
2023/07/20 05:37:46;;;;;;;29.48;7.45;;;;;;;;;;4996724;28;20047;-68
2023/07/20 05:40:14;;;;;;;42.20;7.32;;;;;;;;;;4996208;28;20125;-72
2023/07/20 05:42:41;;;;;;;33.05;6.47;;;;;;;;;;4994751;28;20042;-66
2023/07/20 05:45:08;;;;;;;51.65;8.38;;;;;;;;;;4994976;28;20077;-67
2023/07/20 05:47:34;;;;;;;63.47;9.77;;;;;;;;;;4996715;28;20042;-69
2023/07/20 05:50:01;;;;;;;80.82;11.00;;;;;;;;;;4996807;28;20137;-67
2023/07/20 05:52:28;;;;;;;35.50;7.65;;;;;;;;;;4995714;28;20043;-67
2023/07/20 05:54:55;;;;;;;32.42;6.95;;;;;;;;;;4997753;28;20050;-71
2023/07/20 05:57:21;;;;;;;37.17;7.82;;;;;;;;;;4998822;28;20046;-73
2023/07/20 05:59:48;;;;;;;34.63;7.38;;;;;;;;;;4996435;28;20070;-73
2023/07/20 06:02:15;;;;;;;52.90;8.95;;;;;;;;;;4996905;28;20058;-71
2023/07/20 06:04:42;;;;;;;25.27;8.38;;;;;;;;;;4998857;28;20069;-70
2023/07/20 06:07:09;;;;;;;42.72;7.32;;;;;;;;;;4999334;28;20042;-71
2023/07/20 06:09:36;;;;;;;36.17;7.47;;;;;;;;;;4995033;28;20559;-71
2023/07/20 06:12:03;;;;;;;33.85;6.60;;;;;;;;;;4995965;28;20476;-71
2023/07/20 06:14:30;;;;;;;40.95;8.13;;;;;;;;;;4998349;28;20091;-72
2023/07/20 06:16:57;;;;;;;72.40;10.43;;;;;;;;;;4999131;28;20077;-73
2023/07/20 06:19:24;;;;;;;35.78;7.40;;;;;;;;;;4997240;28;20054;-72
2023/07/20 06:21:51;;;;;;;65.50;29.92;;;;;;;;;;4997764;28;20053;-72
2023/07/20 06:24:17;;;;;;;54.80;8.93;;;;;;;;;;4998580;28;20045;-74
2023/07/20 06:26:44;;;;;;;50.25;8.80;;;;;;;;;;4994381;28;20046;-74
2023/07/20 06:29:11;;;;;;;80.63;11.25;;;;;;;;;;4995151;28;20162;-73
2023/07/20 06:31:38;;;;;;;28.35;6.85;;;;;;;;;;4999023;28;20046;-72
2023/07/20 06:34:05;;;;;;;31.02;7.40;;;;;;;;;;4996898;28;20093;-74
2023/07/20 06:36:31;;;;;;;35.75;7.22;;;;;;;;;;4996207;28;20054;-71
2023/07/20 06:38:58;;;;;;;30.23;7.03;;;;;;;;;;4995194;28;20105;-72
2023/07/20 06:41:28;;;;;;;35.28;7.63;;;;;;;;;;4996478;28;20485;-73
2023/07/20 06:43:58;;;;;;;56.97;9.07;;;;;;;;;;4996034;28;20522;-71
2023/07/20 06:46:25;;;;;;;35.08;7.30;;;;;;;;;;4997464;28;20070;-73
2023/07/20 06:48:53;;;;;;;35.38;6.65;;;;;;;;;;4992560;28;20046;-72
2023/07/20 06:51:23;;;;;;;57.28;9.23;;;;;;;;;;4994580;28;20039;-72
2023/07/20 06:53:50;;;;;;;41.75;7.68;;;;;;;;;;4995996;28;20034;-73
2023/07/20 06:56:16;;;;;;;51.35;8.98;;;;;;;;;;4996086;28;20045;-71
2023/07/20 06:58:43;;;;;;;28.10;5.85;;;;;;;;;;4996142;28;20130;-74
2023/07/20 07:01:09;;;;;;;44.47;7.50;;;;;;;;;;4993353;28;20046;-77
2023/07/20 07:03:36;;;;;;;37.10;7.43;;;;;;;;;;4991804;28;20039;-70
2023/07/20 07:06:04;;;;;;;28.48;6.40;;;;;;;;;;4994655;28;20113;-74
2023/07/20 07:08:31;;;;;;;34.08;7.25;;;;;;;;;;4994424;28;20076;-72
2023/07/20 07:10:58;;;;;;;72.15;9.88;;;;;;;;;;4993587;28;20089;-71
2023/07/20 07:13:25;;;;;;;29.42;6.13;;;;;;;;;;4995286;28;20046;-74
2023/07/20 07:15:51;;;;;;;29.38;6.28;;;;;;;;;;4993758;28;20076;-70
2023/07/20 07:18:20;;;;;;;41.65;7.10;;;;;;;;;;4992306;28;20066;-70
2023/07/20 07:20:51;;;;;;;26.40;5.97;;;;;;;;;;4991707;28;20492;-71
2023/07/20 07:23:18;;;;;;;52.47;8.18;;;;;;;;;;4991975;28;20137;-70
2023/07/20 07:25:44;;;;;;;46.65;6.97;;;;;;;;;;4991545;28;20133;-62
2023/07/20 07:28:11;;;;;;;28.17;5.85;;;;;;;;;;4992340;28;20551;-72
2023/07/20 07:30:38;;;;;;;27.52;5.72;;;;;;;;;;4991528;28;20062;-74
2023/07/20 07:33:05;;;;;;;47.63;7.57;;;;;;;;;;4989273;28;20056;-73
2023/07/20 07:35:31;;;;;;;35.72;7.18;;;;;;;;;;4990963;28;20138;-64
2023/07/20 07:37:58;;;;;;;69.03;17.58;;;;;;;;;;4990886;28;20073;-72
2023/07/20 07:40:29;;;;;;;56.17;36.67;;;;;;;;;;4991548;28;20050;-72
2023/07/20 07:42:56;;;;;;;48.88;17.83;;;;;;;;;;4991291;28;20050;-69
2023/07/20 07:45:22;;;;;;;23.00;7.25;;;;;;;;;;4991293;28;20057;-70
2023/07/20 07:47:49;;;;;;;58.92;8.80;;;;;;;;;;4992074;28;20058;-71
2023/07/20 07:50:15;;;;;;;50.92;7.75;;;;;;;;;;4990828;28;20077;-71
2023/07/20 07:52:42;;;;;;;29.48;5.75;;;;;;;;;;4992700;28;20073;-69
2023/07/20 07:55:09;;;;;;;43.72;6.40;;;;;;;;;;4991192;28;20077;-72
2023/07/20 07:57:35;;;;;;;31.10;6.35;;;;;;;;;;4989892;28;20101;-68
2023/07/20 08:00:03;;;;;;;36.17;6.70;;;;;;;;;;4990816;28;20069;-68
2023/07/20 08:02:30;;;;;;;45.20;7.70;;;;;;;;;;4989423;28;20090;-70
2023/07/20 08:04:56;;;;;;;44.08;7.43;;;;;;;;;;4991204;28;20427;-73
2023/07/20 08:07:23;;;;;;;28.35;6.72;;;;;;;;;;4991782;28;20160;-68
2023/07/20 08:09:49;;;;;;;44.17;7.45;;;;;;;;;;4991150;28;20104;-69
2023/07/20 08:12:18;;;;;;;28.85;6.78;;;;;;;;;;4991094;28;20042;-66
2023/07/20 08:14:44;;;;;;;43.58;7.68;;;;;;;;;;4991078;28;20054;-61
2023/07/20 08:17:11;;;;;;;85.50;10.77;;;;;;;;;;4990761;28;20058;-68
2023/07/20 08:19:41;;;;;;;36.15;6.70;;;;;;;;;;4991630;28;20042;-69
2023/07/20 08:22:08;;;;;;;33.10;6.35;;;;;;;;;;4988048;28;20455;-69
2023/07/20 08:24:35;;;;;;;23.70;6.50;;;;;;;;;;4987005;28;20436;-70
2023/07/20 08:27:02;;;;;;;44.47;7.57;;;;;;;;;;4990627;28;20133;-69
2023/07/20 08:29:28;;;;;;;32.92;5.85;;;;;;;;;;4991166;28;20133;-67
2023/07/20 08:31:55;;;;;;;28.67;6.03;;;;;;;;;;4991204;28;20124;-70
2023/07/20 08:34:21;;;;;;;26.15;5.75;;;;;;;;;;4991509;28;20134;-69
2023/07/20 08:36:57;;;;;;;24.20;4.93;;;;;;;;;;4990621;28;20046;-68
2023/07/20 08:39:24;;;;;;;19.95;5.30;;;;;;;;;;4990352;28;20042;-67
2023/07/20 08:41:51;;;;;;;32.03;6.20;;;;;;;;;;4989762;28;20055;-70
2023/07/20 08:44:18;;;;;;;48.58;7.22;;;;;;;;;;4990279;28;20081;-69
2023/07/20 08:46:47;;;;;;;25.75;4.88;;;;;;;;;;4990467;28;20499;-70
2023/07/20 08:49:14;;;;;;;52.92;7.45;;;;;;;;;;4991915;28;20130;-67
2023/07/20 08:51:42;;;;;;;41.85;6.47;;;;;;;;;;4993751;28;20058;-64
2023/07/20 08:54:09;;;;;;;35.03;6.15;;;;;;;;;;4994115;28;20133;-68
2023/07/20 08:56:36;;;;;;;43.88;7.20;;;;;;;;;;4994002;28;20050;-70
2023/07/20 08:59:02;;;;;;;99.32;11.20;;;;;;;;;;4993870;28;20459;-71
2023/07/20 09:01:30;;;;;;;23.95;6.40;;;;;;;;;;4993367;28;20084;-70
2023/07/20 09:03:56;;;;;;;35.95;7.25;;;;;;;;;;4993477;28;20058;-68
2023/07/20 09:06:23;;;;;;;29.58;6.72;;;;;;;;;;4991969;28;20070;-70
2023/07/20 09:08:52;;;;;;;28.23;7.25;;;;;;;;;;4993974;28;20046;-69
2023/07/20 09:11:18;;;;;;;42.50;7.65;;;;;;;;;;4993261;28;20057;-71
2023/07/20 09:13:45;;;;;;;30.33;7.32;;;;;;;;;;4994815;28;20046;-73
2023/07/20 09:16:15;;;;;;;32.33;7.32;;;;;;;;;;4993495;28;20046;-69
2023/07/20 09:18:42;;;;;;;47.75;7.82;;;;;;;;;;4993282;28;20756;-74
2023/07/20 09:21:09;;;;;;;68.95;10.00;;;;;;;;;;4991776;28;20096;-70
2023/07/20 09:23:37;;;;;;;43.47;7.93;;;;;;;;;;4993361;28;20042;-77
2023/07/20 09:26:11;;;;;;;65.75;9.25;;;;;;;;;;4993591;28;20496;-76
2023/07/20 09:29:04;;;;;;;27.08;6.85;;;;;;;;;;4994091;28;20488;-81
2023/07/20 09:31:30;;;;;;;36.60;6.90;;;;;;;;;;4992440;28;20564;-85
2023/07/20 09:34:06;;;;;;;20.50;5.47;;;;;;;;;;4977299;28;20374;-87
2023/07/20 09:36:35;;;;;;;27.40;5.05;;;;;;;;;;4992794;28;20807;-65
2023/07/20 09:39:04;;;;;;;36.15;6.75;;;;;;;;;;4993136;28;20532;-66
2023/07/20 09:41:43;;;;;;;25.35;5.97;;;;;;;;;;4993294;28;20070;-73
2023/07/20 09:44:14;;;;;;;82.93;9.35;;;;;;;;;;4990798;28;20105;-72
2023/07/20 09:46:47;;;;;;;19.75;4.63;;;;;;;;;;4992793;28;20487;-70
2023/07/20 09:49:17;;;;;;;55.80;7.88;;;;;;;;;;4990596;28;20070;-71
2023/07/20 09:51:47;;;;;;;32.55;5.20;;;;;;;;;;4989248;28;20506;-73
2023/07/20 09:54:14;;;;;;;43.80;6.82;;;;;;;;;;4988118;28;20046;-70
2023/07/20 09:56:41;;;;;;;40.63;6.78;;;;;;;;;;4993161;28;20050;-70
2023/07/20 09:59:08;;;;;;;104.78;11.18;;;;;;;;;;4992214;28;20046;-71
2023/07/20 10:01:38;;;;;;;37.08;5.63;;;;;;;;;;4990849;28;20514;-76
2023/07/20 10:04:06;;;;;;;21.45;5.20;;;;;;;;;;4989478;28;20073;-74
2023/07/20 10:06:34;;;;;;;36.22;5.88;;;;;;;;;;4992225;28;20046;-66
2023/07/20 10:09:03;;;;;;;33.28;5.38;;;;;;;;;;4990869;28;20503;-69
2023/07/20 10:11:31;;;;;;;25.95;4.45;;;;;;;;;;4992518;28;20046;-73
2023/07/20 10:13:58;;;;;;;29.13;5.13;;;;;;;;;;4989467;28;20046;-70
2023/07/20 10:16:27;;;;;;;30.73;4.80;;;;;;;;;;4992880;28;20133;-70
2023/07/20 10:19:13;;;;;;;23.50;5.20;;;;;;;;;;4988908;28;20046;-77
2023/07/20 10:21:45;;;;;;;36.38;5.85;;;;;;;;;;4990755;28;20038;-76
2023/07/20 10:24:16;;;;;;;34.08;5.00;;;;;;;;;;4992813;28;20073;-77
2023/07/20 10:26:42;;;;;;;43.20;5.40;;;;;;;;;;4992071;28;20042;-73
2023/07/20 10:29:10;;;;;;;86.90;9.38;;;;;;;;;;4992506;28;20551;-77
2023/07/20 10:31:37;;;;;;;24.88;4.60;;;;;;;;;;4991354;28;20074;-78
2023/07/20 10:34:04;;;;;;;29.05;4.47;;;;;;;;;;4991841;28;20042;-77
2023/07/20 10:36:30;;;;;;;48.95;6.03;;;;;;;;;;4992142;28;20154;-76
2023/07/20 10:38:58;;;;;;;42.35;5.47;;;;;;;;;;4986134;28;20100;-78
2023/07/20 10:41:28;;;;;;;37.58;5.13;;;;;;;;;;4991929;28;20038;-79
2023/07/20 10:44:00;;;;;;;28.13;4.65;;;;;;;;;;4970262;28;20050;-76
2023/07/20 10:46:53;;;;;;;29.80;4.65;;;;;;;;;;4991825;28;20042;-77
2023/07/20 10:49:26;;;;;;;;;;;;;;;;;;4988596;28;20062;-74
2023/07/20 10:51:56;;;;;;;34.33;4.88;;;;;;;;;;4992192;28;19933;-72
2023/07/20 10:54:33;;;;;;;27.48;4.00;;;;;;;;;;4991570;28;20046;-76
2023/07/20 10:57:24;;;;;;;36.88;5.22;;;;;;;;;;4991616;28;20038;-79
2023/07/20 10:59:51;;;;;;;45.75;5.25;;;;;;;;;;4980548;28;20128;-73
2023/07/20 11:02:19;;;;;;;59.10;6.35;;;;;;;;;;4991275;28;20050;-75
2023/07/20 11:04:47;;;;;;;41.40;5.30;;;;;;;;;;4990376;28;20065;-76
2023/07/20 11:07:35;;;;;;;46.88;6.15;;;;;;;;;;4991167;28;20104;-75
2023/07/20 11:10:22;;;;;;;40.83;5.32;;;;;;;;;;4991706;28;20064;-72
2023/07/20 11:13:15;;;;;;;41.53;6.45;;;;;;;;;;4988746;28;20050;-75
2023/07/20 11:15:47;;;;;;;37.67;5.68;;;;;;;;;;4996193;28;20063;-76
2023/07/20 11:18:14;;;;;;;49.22;6.50;;;;;;;;;;4989479;28;20034;-79
2023/07/20 11:20:41;;;;;;;31.67;5.22;;;;;;;;;;4991245;28;20195;-75
2023/07/20 11:23:08;;;;;;;90.20;9.10;;;;;;;;;;4991307;28;20070;-72
2023/07/20 11:25:41;;;;;;;23.85;3.92;;;;;;;;;;4992213;28;20050;-74
2023/07/20 11:28:10;;;;;;;29.35;3.92;;;;;;;;;;4989476;28;20046;-76
2023/07/20 11:30:40;;;;;;;48.53;6.18;;;;;;;;;;4987782;28;20053;-76
2023/07/20 11:33:10;;;;;;;32.95;4.45;;;;;;;;;;4991398;28;20038;-78
2023/07/20 11:35:44;;;;;;;40.25;4.93;;;;;;;;;;4991172;28;20051;-73
2023/07/20 11:38:12;;;;;;;78.55;7.43;;;;;;;;;;4991236;28;20042;-80
2023/07/20 11:40:45;;;;;;;39.45;4.30;;;;;;;;;;4990465;28;20070;-73
2023/07/20 11:43:14;;;;;;;60.08;6.15;;;;;;;;;;4991330;28;20121;-76
2023/07/20 11:45:45;;;;;;;32.13;4.10;;;;;;;;;;4989888;28;21916;-74
2023/07/20 11:48:17;;;;;;;39.13;5.15;;;;;;;;;;4991105;28;20046;-76
2023/07/20 11:50:44;;;;;;;36.35;4.90;;;;;;;;;;4991274;28;20115;-76
2023/07/20 11:53:11;;;;;;;95.38;10.75;;;;;;;;;;4990561;28;20411;-76
2023/07/20 11:55:38;;;;;;;37.53;7.60;;;;;;;;;;4991911;28;20085;-76
2023/07/20 11:58:06;;;;;;;41.03;9.27;;;;;;;;;;4991038;28;20395;-76
2023/07/20 12:00:33;;;;;;;26.92;8.85;;;;;;;;;;4990506;28;20038;-77
2023/07/20 12:02:59;;;;;;;41.22;7.18;;;;;;;;;;4990637;28;20034;-77
2023/07/20 12:05:26;;;;;;;38.22;5.18;;;;;;;;;;4987493;28;20074;-72
2023/07/20 12:07:54;;;;;;;30.05;4.82;;;;;;;;;;4991612;28;20424;-75
2023/07/20 12:10:25;;;;;;;43.13;5.25;;;;;;;;;;4991239;28;20043;-74
2023/07/20 12:12:52;;;;;;;35.83;4.43;;;;;;;;;;4990658;28;20074;-78
2023/07/20 12:15:23;;;;;;;27.48;4.03;;;;;;;;;;4990773;28;20045;-75
2023/07/20 12:17:50;;;;;;;32.58;4.32;;;;;;;;;;4988516;28;20050;-77
2023/07/20 12:20:26;;;;;;;54.25;5.82;;;;;;;;;;4989602;28;20043;-75
2023/07/20 12:22:55;;;;;;;29.73;3.53;;;;;;;;;;4990280;28;20050;-77
2023/07/20 12:25:22;;;;;;;40.97;4.63;;;;;;;;;;4993852;28;20109;-75
2023/07/20 12:27:48;;;;;;;39.25;4.55;;;;;;;;;;4991734;28;20046;-77
2023/07/20 12:30:15;;;;;;;32.33;3.97;;;;;;;;;;4994322;28;20043;-76
2023/07/20 12:32:42;;;;;;;43.28;4.97;;;;;;;;;;4993179;28;20050;-76
2023/07/20 12:35:08;;;;;;;90.80;9.00;;;;;;;;;;4991967;28;20054;-77
2023/07/20 12:37:35;;;;;;;43.75;4.75;;;;;;;;;;4994766;28;20035;-76
2023/07/20 12:40:02;;;;;;;36.30;4.25;;;;;;;;;;4993842;28;20077;-73
2023/07/20 12:42:29;;;;;;;33.42;4.45;;;;;;;;;;4994005;28;20034;-78
2023/07/20 12:44:55;;;;;;;38.40;4.70;;;;;;;;;;4993913;28;20440;-77
2023/07/20 12:47:22;;;;;;;45.05;5.18;;;;;;;;;;4993982;28;20034;-79
2023/07/20 12:49:49;;;;;;;23.90;3.67;;;;;;;;;;4995501;28;20049;-78
2023/07/20 12:52:15;;;;;;;40.83;4.30;;;;;;;;;;4992290;28;20054;-77
2023/07/20 12:54:42;;;;;;;26.52;3.88;;;;;;;;;;4994418;28;20042;-79
2023/07/20 12:57:09;;;;;;;49.53;5.90;;;;;;;;;;4994114;28;20046;-76
2023/07/20 12:59:38;;;;;;;60.47;6.75;;;;;;;;;;4993543;28;20149;-77
2023/07/20 13:02:06;;;;;;;50.72;5.68;;;;;;;;;;4994098;28;20118;-75
2023/07/20 13:04:32;;;;;;;34.97;4.50;;;;;;;;;;4991034;28;20133;-75
2023/07/20 13:06:59;;;;;;;59.80;6.50;;;;;;;;;;4993224;28;20043;-76
2023/07/20 13:09:26;;;;;;;72.22;7.10;;;;;;;;;;4989785;28;20540;-76
2023/07/20 13:11:53;;;;;;;36.90;4.75;;;;;;;;;;4993525;28;20464;-77
2023/07/20 13:14:20;;;;;;;59.58;6.30;;;;;;;;;;4992191;28;20077;-67
2023/07/20 13:16:46;;;;;;;8.45;2.42;;;;;;;;;;4994795;28;20459;-75
2023/07/20 13:19:13;;;;;;;48.85;5.32;;;;;;;;;;4991443;28;20050;-71
2023/07/20 13:21:39;;;;;;;51.65;5.60;;;;;;;;;;4993367;28;20042;-72
2023/07/20 13:24:06;;;;;;;28.73;3.92;;;;;;;;;;4991877;28;20039;-73
2023/07/20 13:26:33;;;;;;;35.13;4.00;;;;;;;;;;4993397;28;20404;-80
2023/07/20 13:29:00;;;;;;;38.72;4.55;;;;;;;;;;4993688;28;20050;-78
2023/07/20 13:31:27;;;;;;;29.02;3.63;;;;;;;;;;4991920;28;20053;-71
2023/07/20 15:20:36;;;;;;;214.40;103.30;;;;;;;;;;4884402;22;1382397;-63
2023/07/20 15:23:03;;;;;;;88.65;77.40;;;;;;;;;;5063043;28;20044;-61
2023/07/20 15:25:29;;;;;;;67.45;61.55;;;;;;;;;;5086808;28;20040;-62
2023/07/20 15:27:56;;;;;;;44.22;40.83;;;;;;;;;;5084766;28;20036;-62
2023/07/20 15:30:23;;;;;;;36.30;32.15;;;;;;;;;;5085687;28;20079;-63
2023/07/20 15:32:52;;;;;;;27.30;19.80;;;;;;;;;;5084522;28;20101;-63
2023/07/20 15:35:22;;;;;;;54.58;46.45;;;;;;;;;;5084603;28;20044;-62
2023/07/20 15:37:49;;;;;;;95.13;82.10;;;;;;;;;;5087765;28;20055;-62
2023/07/20 15:40:16;;;;;;;58.20;52.90;;;;;;;;;;5067295;28;20040;-62
2023/07/20 15:42:43;;;;;;;40.05;36.00;;;;;;;;;;5066197;28;20075;-64
2023/07/20 15:45:09;;;;;;;54.00;32.42;;;;;;;;;;5084385;28;20046;-62
2023/07/20 15:47:36;;;;;;;47.38;30.70;;;;;;;;;;5070046;28;20044;-63
2023/07/20 15:50:03;;;;;;;80.50;28.52;;;;;;;;;;5068091;28;20036;-63
2023/07/20 15:52:30;;;;;;;66.78;23.90;;;;;;;;;;5086918;28;20200;-62
2023/07/20 15:54:57;;;;;;;96.70;24.60;;;;;;;;;;5083447;28;20048;-63
2023/07/20 15:57:24;;;;;;;48.90;19.90;;;;;;;;;;5067956;28;20052;-62
2023/07/20 15:59:50;;;;;;;35.35;17.35;;;;;;;;;;5085614;28;20405;-65
2023/07/20 16:02:17;;;;;;;466.80;57.22;;;;;;;;;;5084015;28;20051;-62
2023/07/20 16:04:46;;;;;;;41.65;15.00;;;;;;;;;;5084452;28;20119;-62
2023/07/20 16:07:19;;;;;;;39.22;14.48;;;;;;;;;;5067200;28;20063;-63
2023/07/20 16:09:46;;;;;;;32.47;18.08;;;;;;;;;;5084011;28;20152;-77
2023/07/20 16:12:13;;;;;;;29.63;12.25;;;;;;;;;;5084004;28;20447;-73
2023/07/20 16:14:40;;;;;;;22.38;13.25;;;;;;;;;;5083809;28;20533;-66
2023/07/20 16:17:12;;;;;;;36.75;13.43;;;;;;;;;;5084886;28;20042;-67
2023/07/20 16:19:39;;;;;;;63.25;14.10;;;;;;;;;;5069241;28;20050;-67
2023/07/20 16:22:06;;;;;;;27.98;10.23;;;;;;;;;;5083444;28;20052;-69
2023/07/20 16:24:33;;;;;;;18.52;10.98;;;;;;;;;;5065427;28;20044;-70